createdAt,value
2022-10-31T00:00:03.377Z,1009.81
2022-10-31T00:01:02.965Z,1009.77
2022-10-31T00:02:03.452Z,1009.79
2022-10-31T00:03:03.374Z,1009.80
2022-10-31T00:04:03.492Z,1009.82
2022-10-31T00:05:03.614Z,1009.90
2022-10-31T00:06:03.411Z,1009.87
2022-10-31T00:07:03.417Z,1009.88
2022-10-31T00:08:02.814Z,1009.85
2022-10-31T00:09:03.194Z,1009.86
2022-10-31T00:10:03.433Z,1009.82
2022-10-31T00:11:03.645Z,1009.86
2022-10-31T00:12:02.915Z,1009.88
2022-10-31T00:13:03.255Z,1009.86
2022-10-31T00:14:03.635Z,1009.79
2022-10-31T00:15:02.866Z,1009.86
2022-10-31T00:16:03.473Z,1009.84
2022-10-31T00:17:02.956Z,1009.85
2022-10-31T00:18:03.757Z,1009.81
2022-10-31T00:19:03.664Z,1009.88
2022-10-31T00:20:03.292Z,1009.87
2022-10-31T00:21:02.787Z,1009.85
2022-10-31T00:22:03.633Z,1009.84
2022-10-31T00:23:03.533Z,1009.90
2022-10-31T00:24:02.996Z,1009.89
2022-10-31T00:25:02.926Z,1009.84
2022-10-31T00:26:03.212Z,1009.91
2022-10-31T00:27:03.662Z,1009.90
2022-10-31T00:28:02.972Z,1009.95
2022-10-31T00:29:02.743Z,1009.93
2022-10-31T00:30:02.674Z,1009.98
2022-10-31T00:31:02.751Z,1009.98
2022-10-31T00:32:02.672Z,1009.94
2022-10-31T00:33:02.944Z,1009.92
2022-10-31T00:34:02.675Z,1009.95
2022-10-31T00:35:02.683Z,1009.98
2022-10-31T00:36:02.688Z,1009.98
2022-10-31T00:37:02.630Z,1009.97
2022-10-31T00:38:02.693Z,1009.99
2022-10-31T00:39:02.705Z,1010.00
2022-10-31T00:40:02.730Z,1010.02
2022-10-31T00:41:02.723Z,1010.02
2022-10-31T00:42:02.720Z,1010.01
2022-10-31T00:43:03.446Z,1010.01
2022-10-31T00:44:02.663Z,1010.00
2022-10-31T00:45:02.567Z,1009.97
2022-10-31T00:46:02.542Z,1010.00
2022-10-31T00:47:02.535Z,1010.04
2022-10-31T00:48:03.007Z,1010.02
2022-10-31T00:49:02.551Z,1010.03
2022-10-31T00:50:02.549Z,1010.01
2022-10-31T00:51:02.576Z,1010.04
2022-10-31T00:52:02.590Z,1010.01
2022-10-31T00:53:02.597Z,1010.07
2022-10-31T00:54:02.490Z,1010.05
2022-10-31T00:55:02.618Z,1010.07
2022-10-31T00:56:02.628Z,1010.10
2022-10-31T00:57:02.650Z,1010.05
2022-10-31T00:58:03.212Z,1010.06
2022-10-31T00:59:02.670Z,1010.04
2022-10-31T01:00:02.689Z,1010.05
2022-10-31T01:01:02.790Z,1010.09
2022-10-31T01:02:02.965Z,1010.05
2022-10-31T01:03:02.786Z,1010.03
2022-10-31T01:04:02.456Z,1010.02
2022-10-31T01:05:02.465Z,1010.00
2022-10-31T01:06:02.466Z,1010.01
2022-10-31T01:07:02.476Z,1010.02
2022-10-31T01:08:02.475Z,1010.08
2022-10-31T01:09:02.587Z,1010.07
2022-10-31T01:10:02.596Z,1010.10
2022-10-31T01:11:02.705Z,1010.04
2022-10-31T01:12:02.523Z,1010.04
2022-10-31T01:13:03.002Z,1010.07
2022-10-31T01:14:02.347Z,1010.06
2022-10-31T01:15:02.534Z,1010.01
2022-10-31T01:16:02.897Z,1010.01
2022-10-31T01:17:02.436Z,1010.01
2022-10-31T01:18:02.737Z,1010.05
2022-10-31T01:19:03.074Z,1010.06
2022-10-31T01:20:02.454Z,1010.03
2022-10-31T01:21:02.777Z,1010.07
2022-10-31T01:22:02.973Z,1010.10
2022-10-31T01:23:02.643Z,1010.05
2022-10-31T01:24:03.040Z,1010.02
2022-10-31T01:25:02.602Z,1010.06
2022-10-31T01:26:03.023Z,1010.03
2022-10-31T01:27:03.034Z,1010.09
2022-10-31T01:28:03.085Z,1010.06
2022-10-31T01:29:02.324Z,1010.07
2022-10-31T01:30:02.323Z,1010.01
2022-10-31T01:31:02.244Z,1009.98
2022-10-31T01:32:02.352Z,1009.98
2022-10-31T01:33:02.574Z,1009.97
2022-10-31T01:34:02.465Z,1009.95
2022-10-31T01:35:02.223Z,1009.94
2022-10-31T01:36:02.473Z,1009.96
2022-10-31T01:37:02.592Z,1009.98
2022-10-31T01:38:02.593Z,1009.92
2022-10-31T01:39:02.702Z,1009.95
2022-10-31T01:40:02.207Z,1009.95
2022-10-31T01:41:02.182Z,1009.88
2022-10-31T01:42:02.197Z,1009.81
2022-10-31T01:43:02.604Z,1009.80
2022-10-31T01:44:02.203Z,1009.84
2022-10-31T01:45:02.372Z,1009.78
2022-10-31T01:46:02.343Z,1009.81
2022-10-31T01:47:02.219Z,1009.81
2022-10-31T01:48:02.579Z,1009.81
2022-10-31T01:49:02.165Z,1009.82
2022-10-31T01:50:02.158Z,1009.85
2022-10-31T01:51:02.572Z,1009.88
2022-10-31T01:52:02.581Z,1009.81
2022-10-31T01:53:02.671Z,1009.78
2022-10-31T01:54:02.802Z,1009.81
2022-10-31T01:55:02.815Z,1009.73
2022-10-31T01:56:02.200Z,1009.82
2022-10-31T01:57:02.610Z,1009.80
2022-10-31T01:58:02.939Z,1009.81
2022-10-31T01:59:02.913Z,1009.77
2022-10-31T02:00:02.049Z,1009.81
2022-10-31T02:01:05.032Z,1009.80
2022-10-31T02:02:02.853Z,1009.78
2022-10-31T02:03:03.679Z,1009.82
2022-10-31T02:04:02.740Z,1009.84
2022-10-31T02:05:02.870Z,1009.82
2022-10-31T02:06:02.041Z,1009.77
2022-10-31T02:07:01.996Z,1009.76
2022-10-31T02:08:02.479Z,1009.81
2022-10-31T02:09:01.999Z,1009.83
2022-10-31T02:10:02.118Z,1009.84
2022-10-31T02:11:01.970Z,1009.85
2022-10-31T02:12:01.978Z,1009.77
2022-10-31T02:13:02.444Z,1009.82
2022-10-31T02:14:01.987Z,1009.83
2022-10-31T02:15:01.959Z,1009.89
2022-10-31T02:16:01.997Z,1009.91
2022-10-31T02:17:02.007Z,1009.91
2022-10-31T02:18:02.318Z,1009.91
2022-10-31T02:19:01.946Z,1009.93
2022-10-31T02:20:01.986Z,1009.88
2022-10-31T02:21:01.963Z,1009.94
2022-10-31T02:22:02.039Z,1009.96
2022-10-31T02:23:01.967Z,1009.97
2022-10-31T02:24:01.884Z,1009.98
2022-10-31T02:25:01.889Z,1010.02
2022-10-31T02:26:01.996Z,1010.06
2022-10-31T02:27:02.010Z,1010.09
2022-10-31T02:28:02.464Z,1010.12
2022-10-31T02:29:01.898Z,1010.11
2022-10-31T02:30:01.863Z,1010.15
2022-10-31T02:31:02.236Z,1010.16
2022-10-31T02:32:01.826Z,1010.18
2022-10-31T02:33:02.266Z,1010.18
2022-10-31T02:34:01.835Z,1010.21
2022-10-31T02:35:02.257Z,1010.19
2022-10-31T02:36:02.274Z,1010.19
2022-10-31T02:37:02.274Z,1010.20
2022-10-31T02:38:01.904Z,1010.19
2022-10-31T02:39:01.877Z,1010.26
2022-10-31T02:40:01.883Z,1010.17
2022-10-31T02:41:01.755Z,1010.14
2022-10-31T02:42:01.763Z,1010.15
2022-10-31T02:43:02.267Z,1010.09
2022-10-31T02:44:01.911Z,1010.07
2022-10-31T02:45:01.734Z,1010.08
2022-10-31T02:46:01.784Z,1010.06
2022-10-31T02:47:01.983Z,1010.03
2022-10-31T02:48:02.215Z,1009.98
2022-10-31T02:49:01.943Z,1009.99
2022-10-31T02:50:01.956Z,1010.01
2022-10-31T02:51:01.955Z,1009.99
2022-10-31T02:52:01.965Z,1009.98
2022-10-31T02:53:01.973Z,1009.97
2022-10-31T02:54:01.683Z,1009.91
2022-10-31T02:55:01.984Z,1009.94
2022-10-31T02:56:01.757Z,1009.96
2022-10-31T02:57:01.675Z,1009.92
2022-10-31T02:58:02.571Z,1009.92
2022-10-31T02:59:01.810Z,1009.91
2022-10-31T03:00:01.684Z,1009.86
2022-10-31T03:01:01.805Z,1009.89
2022-10-31T03:02:02.318Z,1009.87
2022-10-31T03:03:02.331Z,1009.84
2022-10-31T03:04:02.051Z,1009.87
2022-10-31T03:05:01.641Z,1009.86
2022-10-31T03:06:02.141Z,1009.85
2022-10-31T03:07:02.143Z,1009.79
2022-10-31T03:08:02.134Z,1009.75
2022-10-31T03:09:01.674Z,1009.69
2022-10-31T03:10:01.597Z,1009.75
2022-10-31T03:11:02.151Z,1009.81
2022-10-31T03:12:02.110Z,1009.72
2022-10-31T03:13:02.053Z,1009.74
2022-10-31T03:14:01.760Z,1009.77
2022-10-31T03:15:01.546Z,1009.75
2022-10-31T03:16:01.928Z,1009.77
2022-10-31T03:17:01.600Z,1009.70
2022-10-31T03:18:01.869Z,1009.75
2022-10-31T03:19:01.602Z,1009.82
2022-10-31T03:20:01.672Z,1009.84
2022-10-31T03:21:01.699Z,1009.79
2022-10-31T03:22:01.750Z,1009.83
2022-10-31T03:23:01.839Z,1009.79
2022-10-31T03:24:01.758Z,1009.76
2022-10-31T03:25:01.803Z,1009.80
2022-10-31T03:26:01.879Z,1009.80
2022-10-31T03:27:01.483Z,1009.80
2022-10-31T03:28:01.932Z,1009.81
2022-10-31T03:29:02.228Z,1009.81
2022-10-31T03:30:01.439Z,1009.85
2022-10-31T03:31:03.532Z,1009.88
2022-10-31T03:32:01.490Z,1009.89
2022-10-31T03:33:01.901Z,1009.93
2022-10-31T03:34:01.637Z,1009.87
2022-10-31T03:35:01.647Z,1009.86
2022-10-31T03:36:01.447Z,1009.88
2022-10-31T03:37:01.737Z,1009.95
2022-10-31T03:38:05.433Z,1009.92
2022-10-31T03:39:01.537Z,1009.92
2022-10-31T03:40:01.756Z,1009.96
2022-10-31T03:41:01.495Z,1009.99
2022-10-31T03:42:01.904Z,1009.93
2022-10-31T03:43:01.766Z,1010.02
2022-10-31T03:44:01.354Z,1009.96
2022-10-31T03:45:01.928Z,1010.02
2022-10-31T03:46:01.395Z,1010.04
2022-10-31T03:47:01.334Z,1010.05
2022-10-31T03:48:02.526Z,1010.05
2022-10-31T03:49:01.744Z,1010.06
2022-10-31T03:50:01.604Z,1010.09
2022-10-31T03:51:01.596Z,1010.08
2022-10-31T03:52:02.432Z,1010.13
2022-10-31T03:53:02.267Z,1010.12
2022-10-31T03:54:01.413Z,1010.11
2022-10-31T03:55:01.623Z,1010.08
2022-10-31T03:56:01.334Z,1010.12
2022-10-31T03:57:02.203Z,1010.12
2022-10-31T03:58:01.571Z,1010.12
2022-10-31T03:59:01.234Z,1010.18
2022-10-31T04:00:01.446Z,1010.12
2022-10-31T04:01:02.110Z,1010.16
2022-10-31T04:02:02.154Z,1010.21
2022-10-31T04:03:01.591Z,1010.22
2022-10-31T04:04:02.035Z,1010.25
2022-10-31T04:05:01.445Z,1010.20
2022-10-31T04:06:01.324Z,1010.19
2022-10-31T04:07:01.296Z,1010.24
2022-10-31T04:08:02.073Z,1010.27
2022-10-31T04:09:01.194Z,1010.27
2022-10-31T04:10:01.285Z,1010.23
2022-10-31T04:11:01.313Z,1010.27
2022-10-31T04:12:01.294Z,1010.21
2022-10-31T04:13:01.683Z,1010.19
2022-10-31T04:14:01.242Z,1010.17
2022-10-31T04:15:01.244Z,1010.12
2022-10-31T04:16:01.333Z,1010.08
2022-10-31T04:17:01.335Z,1010.15
2022-10-31T04:18:01.608Z,1010.13
2022-10-31T04:19:01.552Z,1010.13
2022-10-31T04:20:01.576Z,1010.11
2022-10-31T04:21:01.358Z,1010.14
2022-10-31T04:22:01.578Z,1010.16
2022-10-31T04:23:01.365Z,1010.12
2022-10-31T04:24:01.799Z,1010.18
2022-10-31T04:25:01.173Z,1010.17
2022-10-31T04:26:01.592Z,1010.18
2022-10-31T04:27:01.612Z,1010.17
2022-10-31T04:28:02.038Z,1010.15
2022-10-31T04:29:01.062Z,1010.11
2022-10-31T04:30:01.211Z,1010.18
2022-10-31T04:31:01.222Z,1010.19
2022-10-31T04:32:01.633Z,1010.07
2022-10-31T04:33:01.610Z,1010.11
2022-10-31T04:34:01.980Z,1010.11
2022-10-31T04:35:01.879Z,1010.13
2022-10-31T04:36:01.250Z,1010.09
2022-10-31T04:37:01.271Z,1010.15
2022-10-31T04:38:01.071Z,1010.14
2022-10-31T04:39:01.989Z,1010.10
2022-10-31T04:40:01.278Z,1010.13
2022-10-31T04:41:01.429Z,1010.07
2022-10-31T04:42:01.489Z,1010.06
2022-10-31T04:43:02.295Z,1010.08
2022-10-31T04:44:01.099Z,1010.07
2022-10-31T04:45:00.929Z,1010.01
2022-10-31T04:46:00.938Z,1010.03
2022-10-31T04:47:00.939Z,1010.04
2022-10-31T04:48:01.120Z,1010.04
2022-10-31T04:49:01.128Z,1010.02
2022-10-31T04:50:01.142Z,1010.03
2022-10-31T04:51:00.937Z,1009.98
2022-10-31T04:52:01.027Z,1010.02
2022-10-31T04:53:01.157Z,1009.99
2022-10-31T04:54:01.170Z,1010.07
2022-10-31T04:55:01.167Z,1010.01
2022-10-31T04:56:00.997Z,1010.01
2022-10-31T04:57:00.997Z,1009.97
2022-10-31T04:58:01.335Z,1009.97
2022-10-31T04:59:00.999Z,1009.96
2022-10-31T05:00:01.017Z,1009.93
2022-10-31T05:01:01.306Z,1009.91
2022-10-31T05:02:01.027Z,1009.93
2022-10-31T05:03:01.140Z,1009.88
2022-10-31T05:04:00.816Z,1009.89
2022-10-31T05:05:00.907Z,1009.93
2022-10-31T05:06:00.838Z,1009.93
2022-10-31T05:07:00.846Z,1009.93
2022-10-31T05:08:00.895Z,1009.93
2022-10-31T05:09:00.907Z,1009.95
2022-10-31T05:10:00.896Z,1009.88
2022-10-31T05:11:04.222Z,1009.88
2022-10-31T05:12:00.905Z,1009.91
2022-10-31T05:13:01.291Z,1009.91
2022-10-31T05:14:00.777Z,1009.94
2022-10-31T05:15:00.936Z,1009.90
2022-10-31T05:16:00.714Z,1009.89
2022-10-31T05:17:00.915Z,1009.89
2022-10-31T05:18:01.234Z,1009.86
2022-10-31T05:19:00.987Z,1009.83
2022-10-31T05:20:00.725Z,1009.78
2022-10-31T05:21:00.896Z,1009.80
2022-10-31T05:22:00.741Z,1009.73
2022-10-31T05:23:00.753Z,1009.76
2022-10-31T05:24:00.773Z,1009.73
2022-10-31T05:25:00.962Z,1009.76
2022-10-31T05:26:00.786Z,1009.69
2022-10-31T05:27:00.790Z,1009.69
2022-10-31T05:28:00.990Z,1009.66
2022-10-31T05:29:01.022Z,1009.69
2022-10-31T05:31:01.027Z,1009.66
2022-10-31T05:32:00.751Z,1009.64
2022-10-31T05:33:00.923Z,1009.63
2022-10-31T05:34:01.040Z,1009.67
2022-10-31T05:35:00.824Z,1009.69
2022-10-31T05:36:00.641Z,1009.76
2022-10-31T05:37:00.833Z,1009.75
2022-10-31T05:38:01.073Z,1009.79
2022-10-31T05:39:00.901Z,1009.79
2022-10-31T05:40:06.916Z,1009.81
2022-10-31T05:41:00.872Z,1009.79
2022-10-31T05:42:01.269Z,1009.79
2022-10-31T05:43:01.677Z,1009.77
2022-10-31T05:44:01.092Z,1009.74
2022-10-31T05:45:00.533Z,1009.79
2022-10-31T05:46:01.329Z,1009.78
2022-10-31T05:47:01.130Z,1009.75
2022-10-31T05:48:01.415Z,1009.79
2022-10-31T05:49:02.839Z,1009.75
2022-10-31T05:50:00.605Z,1009.76
2022-10-31T05:51:00.770Z,1009.82
2022-10-31T05:52:00.738Z,1009.73
2022-10-31T05:53:01.310Z,1009.71
2022-10-31T05:54:01.191Z,1009.76
2022-10-31T05:55:01.363Z,1009.66
2022-10-31T05:56:00.765Z,1009.70
2022-10-31T05:57:00.977Z,1009.67
2022-10-31T05:58:01.652Z,1009.64
2022-10-31T05:59:00.586Z,1009.64
2022-10-31T06:00:00.487Z,1009.61
2022-10-31T06:01:00.598Z,1009.55
2022-10-31T06:02:00.607Z,1009.57
2022-10-31T06:03:00.534Z,1009.62
2022-10-31T06:04:00.428Z,1009.65
2022-10-31T06:05:00.483Z,1009.64
2022-10-31T06:06:00.435Z,1009.68
2022-10-31T06:07:00.656Z,1009.64
2022-10-31T06:08:00.697Z,1009.65
2022-10-31T06:09:00.665Z,1009.68
2022-10-31T06:10:00.666Z,1009.65
2022-10-31T06:11:00.684Z,1009.63
2022-10-31T06:12:00.464Z,1009.61
2022-10-31T06:13:00.900Z,1009.62
2022-10-31T06:14:00.484Z,1009.68
2022-10-31T06:15:00.745Z,1009.65
2022-10-31T06:16:00.484Z,1009.58
2022-10-31T06:17:00.294Z,1009.57
2022-10-31T06:18:01.414Z,1009.59
2022-10-31T06:19:00.305Z,1009.61
2022-10-31T06:20:00.522Z,1009.61
2022-10-31T06:21:00.514Z,1009.63
2022-10-31T06:22:00.324Z,1009.63
2022-10-31T06:23:00.708Z,1009.63
2022-10-31T06:24:00.350Z,1009.68
2022-10-31T06:25:00.243Z,1009.66
2022-10-31T06:26:00.424Z,1009.65
2022-10-31T06:27:00.235Z,1009.64
2022-10-31T06:28:00.372Z,1009.64
2022-10-31T06:29:03.120Z,1009.71
2022-10-31T06:30:00.275Z,1009.68
2022-10-31T06:31:00.381Z,1009.75
2022-10-31T06:32:00.393Z,1009.76
2022-10-31T06:33:00.764Z,1009.75
2022-10-31T06:34:00.203Z,1009.71
2022-10-31T06:35:00.211Z,1009.81
2022-10-31T06:36:00.211Z,1009.81
2022-10-31T06:37:00.224Z,1009.78
2022-10-31T06:38:00.732Z,1009.81
2022-10-31T06:39:00.442Z,1009.79
2022-10-31T06:40:00.472Z,1009.73
2022-10-31T06:41:00.451Z,1009.75
2022-10-31T06:42:00.251Z,1009.77
2022-10-31T06:43:00.189Z,1009.73
2022-10-31T06:44:04.934Z,1009.75
2022-10-31T06:45:00.141Z,1009.72
2022-10-31T06:46:00.109Z,1009.71
2022-10-31T06:47:00.110Z,1009.82
2022-10-31T06:48:17.503Z,1009.78
2022-10-31T06:49:00.253Z,1009.78
2022-10-31T06:50:00.102Z,1009.78
2022-10-31T06:51:00.116Z,1009.79
2022-10-31T06:52:00.108Z,1009.80
2022-10-31T06:53:00.211Z,1009.81
2022-10-31T06:54:00.119Z,1009.78
2022-10-31T06:55:00.131Z,1009.84
2022-10-31T06:56:00.038Z,1009.87
2022-10-31T06:57:00.140Z,1009.87
2022-10-31T06:58:02.894Z,1009.81
2022-10-31T06:59:00.160Z,1009.79
2022-10-31T07:00:00.192Z,1009.81
2022-10-31T07:01:00.064Z,1009.82
2022-10-31T07:02:00.114Z,1009.77
2022-10-31T07:03:00.208Z,1009.78
2022-10-31T07:04:00.007Z,1009.72
2022-10-31T07:04:59.996Z,1009.77
2022-10-31T07:05:59.988Z,1009.74
2022-10-31T07:07:00.006Z,1009.80
2022-10-31T07:08:00.395Z,1009.80
2022-10-31T07:09:00.008Z,1009.80
2022-10-31T07:10:00.047Z,1009.81
2022-10-31T07:11:00.027Z,1009.89
2022-10-31T07:12:00.052Z,1009.85
2022-10-31T07:13:00.322Z,1009.87
2022-10-31T07:14:00.047Z,1009.85
2022-10-31T07:15:00.056Z,1009.83
2022-10-31T07:15:59.985Z,1009.82
2022-10-31T07:16:59.986Z,1009.75
2022-10-31T07:18:00.080Z,1009.78
2022-10-31T07:18:59.986Z,1009.76
2022-10-31T07:19:59.895Z,1009.72
2022-10-31T07:20:59.916Z,1009.69
2022-10-31T07:22:00.104Z,1009.71
2022-10-31T07:23:00.199Z,1009.66
2022-10-31T07:24:00.111Z,1009.69
2022-10-31T07:24:59.944Z,1009.68
2022-10-31T07:26:00.114Z,1009.67
2022-10-31T07:28:00.275Z,1009.65
2022-10-31T07:29:00.035Z,1009.70
2022-10-31T07:30:00.155Z,1009.71
2022-10-31T07:31:00.156Z,1009.71
2022-10-31T07:31:59.954Z,1009.75
2022-10-31T07:32:59.964Z,1009.71
2022-10-31T07:34:00.172Z,1009.75
2022-10-31T07:35:00.013Z,1009.74
2022-10-31T07:35:59.812Z,1009.73
2022-10-31T07:36:59.825Z,1009.78
2022-10-31T07:38:00.326Z,1009.78
2022-10-31T07:39:00.054Z,1009.77
2022-10-31T07:40:01.240Z,1009.77
2022-10-31T07:41:00.017Z,1009.78
2022-10-31T07:41:59.853Z,1009.81
2022-10-31T07:42:59.824Z,1009.81
2022-10-31T07:43:59.882Z,1009.79
2022-10-31T07:44:59.874Z,1009.78
2022-10-31T07:45:59.851Z,1009.79
2022-10-31T07:47:00.143Z,1009.85
2022-10-31T07:48:00.356Z,1009.79
2022-10-31T07:49:00.084Z,1009.83
2022-10-31T07:49:59.720Z,1009.78
2022-10-31T07:50:59.701Z,1009.76
2022-10-31T07:51:59.719Z,1009.75
2022-10-31T07:52:59.891Z,1009.72
2022-10-31T07:53:59.900Z,1009.73
2022-10-31T07:54:59.901Z,1009.73
2022-10-31T07:55:59.909Z,1009.73
2022-10-31T07:56:59.960Z,1009.74
2022-10-31T07:58:00.055Z,1009.78
2022-10-31T07:58:59.739Z,1009.70
2022-10-31T07:59:59.630Z,1009.70
2022-10-31T08:00:59.860Z,1009.72
2022-10-31T08:01:59.749Z,1009.65
2022-10-31T08:03:00.023Z,1009.66
2022-10-31T08:03:59.809Z,1009.68
2022-10-31T08:05:01.347Z,1009.65
2022-10-31T08:05:59.989Z,1009.69
2022-10-31T08:07:00.009Z,1009.64
2022-10-31T08:08:00.206Z,1009.69
2022-10-31T08:08:59.788Z,1009.68
2022-10-31T08:10:00.020Z,1009.66
2022-10-31T08:11:00.069Z,1009.64
2022-10-31T08:11:59.808Z,1009.68
2022-10-31T08:13:00.030Z,1009.64
2022-10-31T08:13:59.860Z,1009.63
2022-10-31T08:15:00.041Z,1009.63
2022-10-31T08:16:00.039Z,1009.64
2022-10-31T08:17:00.048Z,1009.64
2022-10-31T08:18:00.169Z,1009.65
2022-10-31T08:19:00.057Z,1009.55
2022-10-31T08:19:59.500Z,1009.57
2022-10-31T08:21:00.074Z,1009.54
2022-10-31T08:21:59.467Z,1009.59
2022-10-31T08:22:59.541Z,1009.58
2022-10-31T08:23:59.507Z,1009.58
2022-10-31T08:25:00.112Z,1009.56
2022-10-31T08:25:59.486Z,1009.55
2022-10-31T08:26:59.698Z,1009.51
2022-10-31T08:27:59.778Z,1009.56
2022-10-31T08:28:59.507Z,1009.52
2022-10-31T08:29:59.525Z,1009.53
2022-10-31T08:30:59.526Z,1009.55
2022-10-31T08:31:59.585Z,1009.49
2022-10-31T08:32:59.540Z,1009.50
2022-10-31T08:33:59.757Z,1009.54
2022-10-31T08:34:59.773Z,1009.56
2022-10-31T08:35:59.553Z,1009.53
2022-10-31T08:36:59.774Z,1009.57
2022-10-31T08:38:00.286Z,1009.51
2022-10-31T08:39:01.995Z,1009.52
2022-10-31T08:39:59.990Z,1009.52
2022-10-31T08:40:59.584Z,1009.49
2022-10-31T08:42:00.068Z,1009.48
2022-10-31T08:42:59.805Z,1009.50
2022-10-31T08:44:00.077Z,1009.47
2022-10-31T08:45:00.089Z,1009.47
2022-10-31T08:45:59.821Z,1009.45
2022-10-31T08:46:59.356Z,1009.49
2022-10-31T08:47:59.688Z,1009.46
2022-10-31T08:48:59.328Z,1009.44
2022-10-31T08:49:59.505Z,1009.47
2022-10-31T08:50:59.294Z,1009.47
2022-10-31T08:51:59.310Z,1009.47
2022-10-31T08:53:05.100Z,1009.46
2022-10-31T08:53:59.313Z,1009.38
2022-10-31T08:54:59.264Z,1009.33
2022-10-31T08:55:59.324Z,1009.36
2022-10-31T08:56:59.245Z,1009.32
2022-10-31T08:57:59.757Z,1009.33
2022-10-31T08:58:59.292Z,1009.31
2022-10-31T08:59:59.302Z,1009.38
2022-10-31T09:00:59.376Z,1009.33
2022-10-31T09:01:59.504Z,1009.32
2022-10-31T09:02:59.322Z,1009.32
2022-10-31T09:03:59.391Z,1009.30
2022-10-31T09:04:59.192Z,1009.29
2022-10-31T09:05:59.243Z,1009.27
2022-10-31T09:07:20.155Z,1009.26
2022-10-31T09:07:59.511Z,1009.27
2022-10-31T09:08:59.360Z,1009.26
2022-10-31T09:09:59.369Z,1009.19
2022-10-31T09:10:59.374Z,1009.21
2022-10-31T09:11:59.249Z,1009.20
2022-10-31T09:12:59.451Z,1009.26
2022-10-31T09:13:59.462Z,1009.26
2022-10-31T09:14:59.611Z,1009.20
2022-10-31T09:15:59.615Z,1009.28
2022-10-31T09:16:59.217Z,1009.32
2022-10-31T09:17:59.377Z,1009.32
2022-10-31T09:18:59.129Z,1009.29
2022-10-31T09:19:59.092Z,1009.35
2022-10-31T09:20:59.082Z,1009.34
2022-10-31T09:21:59.080Z,1009.28
2022-10-31T09:22:59.114Z,1009.29
2022-10-31T09:23:59.111Z,1009.29
2022-10-31T09:24:59.119Z,1009.26
2022-10-31T09:25:59.039Z,1009.21
2022-10-31T09:26:59.148Z,1009.18
2022-10-31T09:27:59.675Z,1009.21
2022-10-31T09:28:59.178Z,1009.20
2022-10-31T09:29:59.191Z,1009.21
2022-10-31T09:30:59.199Z,1009.17
2022-10-31T09:31:59.209Z,1009.14
2022-10-31T09:32:59.228Z,1009.19
2022-10-31T09:33:59.236Z,1009.18
2022-10-31T09:34:59.053Z,1009.22
2022-10-31T09:35:59.199Z,1009.20
2022-10-31T09:36:59.128Z,1009.21
2022-10-31T09:37:59.582Z,1009.23
2022-10-31T09:38:59.302Z,1009.20
2022-10-31T09:39:58.957Z,1009.21
2022-10-31T09:40:58.958Z,1009.23
2022-10-31T09:41:58.959Z,1009.28
2022-10-31T09:42:58.968Z,1009.24
2022-10-31T09:43:59.072Z,1009.25
2022-10-31T09:44:59.025Z,1009.24
2022-10-31T09:45:59.189Z,1009.16
2022-10-31T09:46:59.012Z,1009.23
2022-10-31T09:47:59.128Z,1009.21
2022-10-31T09:48:59.034Z,1009.15
2022-10-31T09:49:59.105Z,1009.19
2022-10-31T09:50:58.893Z,1009.14
2022-10-31T09:51:58.995Z,1009.14
2022-10-31T09:52:59.333Z,1009.12
2022-10-31T09:53:59.139Z,1009.09
2022-10-31T09:54:59.258Z,1009.12
2022-10-31T09:55:59.056Z,1009.08
2022-10-31T09:56:59.059Z,1009.09
2022-10-31T09:57:58.866Z,1009.06
2022-10-31T09:58:58.875Z,1009.06
2022-10-31T09:59:59.285Z,1009.02
2022-10-31T10:00:59.349Z,1009.04
2022-10-31T10:01:59.538Z,1009.06
2022-10-31T10:02:59.252Z,1009.05
2022-10-31T10:03:58.989Z,1009.03
2022-10-31T10:04:59.248Z,1009.01
2022-10-31T10:05:59.615Z,1008.98
2022-10-31T10:06:59.697Z,1008.95
2022-10-31T10:07:58.925Z,1008.97
2022-10-31T10:08:59.337Z,1008.97
2022-10-31T10:09:59.687Z,1008.92
2022-10-31T10:10:59.566Z,1008.84
2022-10-31T10:11:58.833Z,1008.84
2022-10-31T10:13:02.213Z,1008.84
2022-10-31T10:13:59.053Z,1008.90
2022-10-31T10:14:59.698Z,1008.80
2022-10-31T10:15:58.976Z,1008.76
2022-10-31T10:16:58.686Z,1008.76
2022-10-31T10:17:58.786Z,1008.76
2022-10-31T10:18:58.794Z,1008.80
2022-10-31T10:19:58.794Z,1008.77
2022-10-31T10:20:58.805Z,1008.74
2022-10-31T10:21:58.873Z,1008.74
2022-10-31T10:22:59.323Z,1008.64
2022-10-31T10:23:58.915Z,1008.71
2022-10-31T10:24:59.034Z,1008.67
2022-10-31T10:25:59.049Z,1008.69
2022-10-31T10:26:59.065Z,1008.69
2022-10-31T10:27:59.194Z,1008.73
2022-10-31T10:28:58.756Z,1008.73
2022-10-31T10:29:58.764Z,1008.77
2022-10-31T10:31:00.105Z,1008.68
2022-10-31T10:31:58.773Z,1008.72
2022-10-31T10:32:58.777Z,1008.74
2022-10-31T10:33:58.614Z,1008.72
2022-10-31T10:34:58.561Z,1008.66
2022-10-31T10:35:58.797Z,1008.67
2022-10-31T10:36:58.594Z,1008.68
2022-10-31T10:37:58.881Z,1008.65
2022-10-31T10:38:58.813Z,1008.64
2022-10-31T10:39:58.615Z,1008.64
2022-10-31T10:40:58.523Z,1008.60
2022-10-31T10:41:58.533Z,1008.63
2022-10-31T10:42:58.552Z,1008.61
2022-10-31T10:43:58.553Z,1008.61
2022-10-31T10:44:58.563Z,1008.61
2022-10-31T10:45:58.563Z,1008.64
2022-10-31T10:46:58.575Z,1008.60
2022-10-31T10:47:59.024Z,1008.51
2022-10-31T10:48:58.693Z,1008.53
2022-10-31T10:49:58.694Z,1008.49
2022-10-31T10:50:58.483Z,1008.48
2022-10-31T10:52:34.937Z,1008.42
2022-10-31T10:52:58.702Z,1008.48
2022-10-31T10:53:58.711Z,1008.46
2022-10-31T10:54:58.714Z,1008.43
2022-10-31T10:55:58.621Z,1008.43
2022-10-31T10:56:58.431Z,1008.40
2022-10-31T10:57:58.899Z,1008.36
2022-10-31T10:58:58.542Z,1008.37
2022-10-31T10:59:58.402Z,1008.28
2022-10-31T11:00:58.752Z,1008.34
2022-10-31T11:01:58.372Z,1008.26
2022-10-31T11:02:58.384Z,1008.20
2022-10-31T11:03:58.781Z,1008.19
2022-10-31T11:04:58.399Z,1008.19
2022-10-31T11:05:58.380Z,1008.22
2022-10-31T11:06:58.342Z,1008.22
2022-10-31T11:07:58.407Z,1008.16
2022-10-31T11:08:58.401Z,1008.15
2022-10-31T11:09:58.411Z,1008.12
2022-10-31T11:10:58.520Z,1008.08
2022-10-31T11:11:58.301Z,1008.06
2022-10-31T11:12:58.608Z,1008.08
2022-10-31T11:13:58.530Z,1008.03
2022-10-31T11:14:58.540Z,1008.06
2022-10-31T11:15:58.549Z,1008.05
2022-10-31T11:16:58.560Z,1008.05
2022-10-31T11:17:58.312Z,1008.08
2022-10-31T11:18:58.570Z,1008.06
2022-10-31T11:19:58.581Z,1008.02
2022-10-31T11:20:58.253Z,1008.02
2022-10-31T11:21:58.600Z,1008.00
2022-10-31T11:22:58.290Z,1007.90
2022-10-31T11:23:58.601Z,1007.90
2022-10-31T11:24:58.608Z,1007.94
2022-10-31T11:25:58.730Z,1007.86
2022-10-31T11:26:58.410Z,1007.88
2022-10-31T11:27:58.740Z,1007.79
2022-10-31T11:28:58.760Z,1007.75
2022-10-31T11:30:00.744Z,1007.78
2022-10-31T11:30:58.649Z,1007.71
2022-10-31T11:31:58.190Z,1007.68
2022-10-31T11:32:58.620Z,1007.63
2022-10-31T11:33:58.251Z,1007.68
2022-10-31T11:34:58.260Z,1007.64
2022-10-31T11:35:58.562Z,1007.73
2022-10-31T11:36:58.371Z,1007.68
2022-10-31T11:37:58.644Z,1007.68
2022-10-31T11:38:58.396Z,1007.64
2022-10-31T11:39:58.500Z,1007.59
2022-10-31T11:40:58.500Z,1007.63
2022-10-31T11:41:58.140Z,1007.57
2022-10-31T11:42:58.229Z,1007.61
2022-10-31T11:43:58.249Z,1007.57
2022-10-31T11:44:58.277Z,1007.58
2022-10-31T11:45:58.128Z,1007.57
2022-10-31T11:46:58.329Z,1007.55
2022-10-31T11:48:00.051Z,1007.54
2022-10-31T11:48:58.491Z,1007.51
2022-10-31T11:49:58.276Z,1007.48
2022-10-31T11:50:58.599Z,1007.46
2022-10-31T11:51:58.608Z,1007.43
2022-10-31T11:52:58.721Z,1007.44
2022-10-31T11:54:01.861Z,1007.39
2022-10-31T11:54:58.730Z,1007.36
2022-10-31T11:55:58.527Z,1007.35
2022-10-31T11:56:58.117Z,1007.35
2022-10-31T11:57:58.583Z,1007.36
2022-10-31T11:58:58.543Z,1007.29
2022-10-31T11:59:58.627Z,1007.33
2022-10-31T12:00:58.016Z,1007.28
2022-10-31T12:01:58.946Z,1007.21
2022-10-31T12:02:58.989Z,1007.18
2022-10-31T12:03:58.369Z,1007.17
2022-10-31T12:04:58.579Z,1007.11
2022-10-31T12:05:58.157Z,1007.10
2022-10-31T12:06:58.935Z,1007.17